sensor_id;sensor_type;location;lat;lon;timestamp;P1;durP1;ratioP1;P2;durP2;ratioP2
69985;SDS011;57328;52.054;5.294;2024-01-16T00:02:04;7.03;;;1.33;;
69985;SDS011;57328;52.054;5.294;2024-01-16T00:04:31;7.35;;;1.20;;
69985;SDS011;57328;52.054;5.294;2024-01-16T00:06:59;3.45;;;0.80;;
69985;SDS011;57328;52.054;5.294;2024-01-16T00:09:26;7.70;;;1.20;;
69985;SDS011;57328;52.054;5.294;2024-01-16T00:11:54;3.97;;;0.90;;
69985;SDS011;57328;52.054;5.294;2024-01-16T00:14:21;7.07;;;1.20;;
69985;SDS011;57328;52.054;5.294;2024-01-16T00:16:48;6.70;;;1.02;;
69985;SDS011;57328;52.054;5.294;2024-01-16T00:19:15;5.93;;;1.02;;
69985;SDS011;57328;52.054;5.294;2024-01-16T00:21:43;2.88;;;0.75;;
69985;SDS011;57328;52.054;5.294;2024-01-16T00:24:14;5.97;;;1.25;;
69985;SDS011;57328;52.054;5.294;2024-01-16T00:26:41;8.85;;;1.60;;
69985;SDS011;57328;52.054;5.294;2024-01-16T00:29:09;3.97;;;1.10;;
69985;SDS011;57328;52.054;5.294;2024-01-16T00:31:38;5.30;;;1.15;;
69985;SDS011;57328;52.054;5.294;2024-01-16T00:34:06;3.63;;;1.02;;
69985;SDS011;57328;52.054;5.294;2024-01-16T00:36:34;5.97;;;0.80;;
69985;SDS011;57328;52.054;5.294;2024-01-16T00:39:01;9.52;;;1.17;;
69985;SDS011;57328;52.054;5.294;2024-01-16T00:41:29;5.28;;;1.25;;
69985;SDS011;57328;52.054;5.294;2024-01-16T00:43:56;7.65;;;1.55;;
69985;SDS011;57328;52.054;5.294;2024-01-16T00:46:24;11.70;;;2.45;;
69985;SDS011;57328;52.054;5.294;2024-01-16T00:48:51;15.10;;;3.03;;
69985;SDS011;57328;52.054;5.294;2024-01-16T00:51:18;17.08;;;3.50;;
69985;SDS011;57328;52.054;5.294;2024-01-16T00:53:45;12.00;;;2.65;;
69985;SDS011;57328;52.054;5.294;2024-01-16T00:56:13;12.70;;;2.95;;
69985;SDS011;57328;52.054;5.294;2024-01-16T00:58:40;17.08;;;4.18;;
69985;SDS011;57328;52.054;5.294;2024-01-16T01:01:07;19.98;;;5.50;;
69985;SDS011;57328;52.054;5.294;2024-01-16T01:03:35;14.52;;;3.58;;
69985;SDS011;57328;52.054;5.294;2024-01-16T01:06:02;8.27;;;2.60;;
69985;SDS011;57328;52.054;5.294;2024-01-16T01:08:29;9.98;;;1.90;;
69985;SDS011;57328;52.054;5.294;2024-01-16T01:10:57;6.82;;;1.45;;
69985;SDS011;57328;52.054;5.294;2024-01-16T01:13:24;9.18;;;1.33;;
69985;SDS011;57328;52.054;5.294;2024-01-16T01:15:51;8.10;;;1.65;;
69985;SDS011;57328;52.054;5.294;2024-01-16T01:18:19;9.48;;;1.45;;
69985;SDS011;57328;52.054;5.294;2024-01-16T01:20:46;7.38;;;1.20;;
69985;SDS011;57328;52.054;5.294;2024-01-16T01:23:14;6.22;;;1.00;;
69985;SDS011;57328;52.054;5.294;2024-01-16T01:25:41;4.40;;;0.90;;
69985;SDS011;57328;52.054;5.294;2024-01-16T01:28:10;5.95;;;1.13;;
69985;SDS011;57328;52.054;5.294;2024-01-16T01:30:37;7.68;;;1.58;;
69985;SDS011;57328;52.054;5.294;2024-01-16T01:33:05;5.50;;;0.77;;
69985;SDS011;57328;52.054;5.294;2024-01-16T01:35:32;6.20;;;1.20;;
69985;SDS011;57328;52.054;5.294;2024-01-16T01:38:00;5.88;;;1.05;;
69985;SDS011;57328;52.054;5.294;2024-01-16T01:40:27;8.93;;;1.08;;
69985;SDS011;57328;52.054;5.294;2024-01-16T01:42:54;5.25;;;0.80;;
69985;SDS011;57328;52.054;5.294;2024-01-16T01:45:21;8.13;;;1.25;;
69985;SDS011;57328;52.054;5.294;2024-01-16T01:47:49;19.00;;;4.25;;
69985;SDS011;57328;52.054;5.294;2024-01-16T01:50:17;16.23;;;3.97;;
69985;SDS011;57328;52.054;5.294;2024-01-16T01:52:44;8.95;;;2.35;;
69985;SDS011;57328;52.054;5.294;2024-01-16T01:55:12;6.28;;;1.35;;
69985;SDS011;57328;52.054;5.294;2024-01-16T01:57:40;7.75;;;0.90;;
69985;SDS011;57328;52.054;5.294;2024-01-16T02:00:09;3.88;;;0.77;;
69985;SDS011;57328;52.054;5.294;2024-01-16T02:02:37;7.72;;;0.90;;
69985;SDS011;57328;52.054;5.294;2024-01-16T02:05:05;4.00;;;0.80;;
69985;SDS011;57328;52.054;5.294;2024-01-16T02:07:32;3.70;;;0.50;;
69985;SDS011;57328;52.054;5.294;2024-01-16T02:10:00;2.30;;;0.65;;
69985;SDS011;57328;52.054;5.294;2024-01-16T02:12:27;1.70;;;0.50;;
69985;SDS011;57328;52.054;5.294;2024-01-16T02:14:54;0.98;;;0.20;;
69985;SDS011;57328;52.054;5.294;2024-01-16T02:17:21;2.20;;;0.43;;
69985;SDS011;57328;52.054;5.294;2024-01-16T02:19:49;2.92;;;0.32;;
69985;SDS011;57328;52.054;5.294;2024-01-16T02:22:18;1.98;;;0.47;;
69985;SDS011;57328;52.054;5.294;2024-01-16T02:24:49;2.38;;;0.45;;
69985;SDS011;57328;52.054;5.294;2024-01-16T02:27:16;1.20;;;0.40;;
69985;SDS011;57328;52.054;5.294;2024-01-16T02:29:44;2.30;;;0.30;;
69985;SDS011;57328;52.054;5.294;2024-01-16T02:32:12;3.65;;;0.40;;
69985;SDS011;57328;52.054;5.294;2024-01-16T02:34:40;3.15;;;0.52;;
69985;SDS011;57328;52.054;5.294;2024-01-16T02:37:08;2.25;;;0.50;;
69985;SDS011;57328;52.054;5.294;2024-01-16T02:39:35;3.30;;;0.55;;
69985;SDS011;57328;52.054;5.294;2024-01-16T02:42:03;4.43;;;0.95;;
69985;SDS011;57328;52.054;5.294;2024-01-16T02:44:30;0.98;;;0.55;;
69985;SDS011;57328;52.054;5.294;2024-01-16T02:46:57;1.38;;;0.57;;
69985;SDS011;57328;52.054;5.294;2024-01-16T02:49:24;3.35;;;1.00;;
69985;SDS011;57328;52.054;5.294;2024-01-16T02:51:52;4.45;;;0.70;;
69985;SDS011;57328;52.054;5.294;2024-01-16T02:54:20;2.28;;;0.90;;
69985;SDS011;57328;52.054;5.294;2024-01-16T02:56:48;2.50;;;0.57;;
69985;SDS011;57328;52.054;5.294;2024-01-16T02:59:15;3.15;;;0.40;;
69985;SDS011;57328;52.054;5.294;2024-01-16T03:01:43;4.10;;;0.60;;
69985;SDS011;57328;52.054;5.294;2024-01-16T03:04:10;3.88;;;0.60;;
69985;SDS011;57328;52.054;5.294;2024-01-16T03:06:38;1.70;;;0.50;;
69985;SDS011;57328;52.054;5.294;2024-01-16T03:09:05;4.60;;;0.45;;
69985;SDS011;57328;52.054;5.294;2024-01-16T03:11:33;4.15;;;0.50;;
69985;SDS011;57328;52.054;5.294;2024-01-16T03:14:00;3.58;;;0.40;;
69985;SDS011;57328;52.054;5.294;2024-01-16T03:16:27;1.33;;;0.28;;
69985;SDS011;57328;52.054;5.294;2024-01-16T03:18:55;1.55;;;0.40;;
69985;SDS011;57328;52.054;5.294;2024-01-16T03:21:22;2.45;;;0.57;;
69985;SDS011;57328;52.054;5.294;2024-01-16T03:23:49;1.25;;;0.45;;
69985;SDS011;57328;52.054;5.294;2024-01-16T03:26:18;3.13;;;0.40;;
69985;SDS011;57328;52.054;5.294;2024-01-16T03:28:45;0.63;;;0.28;;
69985;SDS011;57328;52.054;5.294;2024-01-16T03:31:13;4.43;;;0.43;;
69985;SDS011;57328;52.054;5.294;2024-01-16T03:33:41;3.10;;;0.50;;
69985;SDS011;57328;52.054;5.294;2024-01-16T03:38:39;2.97;;;0.35;;
69985;SDS011;57328;52.054;5.294;2024-01-16T03:41:07;2.35;;;0.50;;
69985;SDS011;57328;52.054;5.294;2024-01-16T03:43:34;1.83;;;0.40;;
69985;SDS011;57328;52.054;5.294;2024-01-16T03:46:02;1.27;;;0.30;;
69985;SDS011;57328;52.054;5.294;2024-01-16T03:48:29;2.45;;;0.28;;
69985;SDS011;57328;52.054;5.294;2024-01-16T03:50:57;4.25;;;0.60;;
69985;SDS011;57328;52.054;5.294;2024-01-16T03:53:24;0.80;;;0.35;;
69985;SDS011;57328;52.054;5.294;2024-01-16T03:55:51;2.95;;;0.30;;
69985;SDS011;57328;52.054;5.294;2024-01-16T03:58:18;3.45;;;0.55;;
69985;SDS011;57328;52.054;5.294;2024-01-16T04:00:46;1.33;;;0.20;;
69985;SDS011;57328;52.054;5.294;2024-01-16T04:03:13;2.85;;;0.57;;
69985;SDS011;57328;52.054;5.294;2024-01-16T04:05:41;5.50;;;0.47;;
69985;SDS011;57328;52.054;5.294;2024-01-16T04:08:09;2.15;;;0.70;;
69985;SDS011;57328;52.054;5.294;2024-01-16T04:10:36;1.73;;;0.40;;
69985;SDS011;57328;52.054;5.294;2024-01-16T04:13:03;3.53;;;0.52;;
69985;SDS011;57328;52.054;5.294;2024-01-16T04:15:31;3.13;;;0.47;;
69985;SDS011;57328;52.054;5.294;2024-01-16T04:17:59;2.17;;;0.60;;
69985;SDS011;57328;52.054;5.294;2024-01-16T04:20:26;3.08;;;0.57;;
69985;SDS011;57328;52.054;5.294;2024-01-16T04:22:53;4.07;;;0.57;;
69985;SDS011;57328;52.054;5.294;2024-01-16T04:25:21;2.90;;;0.70;;
69985;SDS011;57328;52.054;5.294;2024-01-16T04:27:48;2.30;;;0.70;;
69985;SDS011;57328;52.054;5.294;2024-01-16T04:30:15;2.38;;;0.55;;
69985;SDS011;57328;52.054;5.294;2024-01-16T04:32:43;2.10;;;0.60;;
69985;SDS011;57328;52.054;5.294;2024-01-16T04:35:10;5.45;;;0.70;;
69985;SDS011;57328;52.054;5.294;2024-01-16T04:37:37;1.55;;;0.73;;
69985;SDS011;57328;52.054;5.294;2024-01-16T04:40:05;6.50;;;0.80;;
69985;SDS011;57328;52.054;5.294;2024-01-16T04:42:32;4.72;;;0.65;;
69985;SDS011;57328;52.054;5.294;2024-01-16T04:45:00;5.22;;;1.00;;
69985;SDS011;57328;52.054;5.294;2024-01-16T04:47:27;3.78;;;0.60;;
69985;SDS011;57328;52.054;5.294;2024-01-16T04:49:55;4.70;;;1.65;;
69985;SDS011;57328;52.054;5.294;2024-01-16T04:52:22;2.95;;;0.90;;
69985;SDS011;57328;52.054;5.294;2024-01-16T04:54:49;2.67;;;0.75;;
69985;SDS011;57328;52.054;5.294;2024-01-16T04:57:16;2.28;;;0.82;;
69985;SDS011;57328;52.054;5.294;2024-01-16T04:59:43;2.88;;;1.00;;
69985;SDS011;57328;52.054;5.294;2024-01-16T05:02:11;3.53;;;0.90;;
69985;SDS011;57328;52.054;5.294;2024-01-16T05:04:40;4.60;;;1.10;;
69985;SDS011;57328;52.054;5.294;2024-01-16T05:07:08;4.20;;;0.82;;
69985;SDS011;57328;52.054;5.294;2024-01-16T05:09:35;3.92;;;0.80;;
69985;SDS011;57328;52.054;5.294;2024-01-16T05:12:03;4.30;;;1.02;;
69985;SDS011;57328;52.054;5.294;2024-01-16T05:14:30;3.70;;;0.88;;
69985;SDS011;57328;52.054;5.294;2024-01-16T05:16:58;1.98;;;0.77;;
69985;SDS011;57328;52.054;5.294;2024-01-16T05:19:25;7.70;;;1.05;;
69985;SDS011;57328;52.054;5.294;2024-01-16T05:21:52;6.10;;;1.08;;
69985;SDS011;57328;52.054;5.294;2024-01-16T05:24:19;5.70;;;0.90;;
69985;SDS011;57328;52.054;5.294;2024-01-16T05:26:47;4.95;;;1.05;;
69985;SDS011;57328;52.054;5.294;2024-01-16T05:29:14;7.47;;;1.50;;
69985;SDS011;57328;52.054;5.294;2024-01-16T05:31:41;2.85;;;1.05;;
69985;SDS011;57328;52.054;5.294;2024-01-16T05:34:09;4.40;;;1.25;;
69985;SDS011;57328;52.054;5.294;2024-01-16T05:36:36;2.22;;;1.15;;
69985;SDS011;57328;52.054;5.294;2024-01-16T05:39:04;4.63;;;1.15;;
69985;SDS011;57328;52.054;5.294;2024-01-16T05:41:34;6.85;;;1.48;;
69985;SDS011;57328;52.054;5.294;2024-01-16T05:44:01;4.82;;;1.33;;
69985;SDS011;57328;52.054;5.294;2024-01-16T05:46:32;2.40;;;1.10;;
69985;SDS011;57328;52.054;5.294;2024-01-16T05:49:00;4.95;;;1.25;;
69985;SDS011;57328;52.054;5.294;2024-01-16T05:51:28;6.68;;;1.60;;
69985;SDS011;57328;52.054;5.294;2024-01-16T05:53:55;5.25;;;1.20;;
69985;SDS011;57328;52.054;5.294;2024-01-16T05:56:23;5.55;;;1.30;;
69985;SDS011;57328;52.054;5.294;2024-01-16T05:58:50;4.28;;;1.58;;
69985;SDS011;57328;52.054;5.294;2024-01-16T06:01:18;4.82;;;1.67;;
69985;SDS011;57328;52.054;5.294;2024-01-16T06:03:45;8.00;;;1.63;;
69985;SDS011;57328;52.054;5.294;2024-01-16T06:06:15;3.83;;;1.55;;
69985;SDS011;57328;52.054;5.294;2024-01-16T06:08:43;5.82;;;1.63;;
69985;SDS011;57328;52.054;5.294;2024-01-16T06:11:10;6.07;;;1.90;;
69985;SDS011;57328;52.054;5.294;2024-01-16T06:13:40;5.28;;;1.77;;
69985;SDS011;57328;52.054;5.294;2024-01-16T06:16:07;5.35;;;2.00;;
69985;SDS011;57328;52.054;5.294;2024-01-16T06:18:35;7.30;;;2.10;;
69985;SDS011;57328;52.054;5.294;2024-01-16T06:21:03;21.65;;;7.78;;
69985;SDS011;57328;52.054;5.294;2024-01-16T06:23:30;4.78;;;2.45;;
69985;SDS011;57328;52.054;5.294;2024-01-16T06:25:59;7.90;;;2.80;;
69985;SDS011;57328;52.054;5.294;2024-01-16T06:30:54;7.32;;;2.63;;
69985;SDS011;57328;52.054;5.294;2024-01-16T06:33:21;7.60;;;2.88;;
69985;SDS011;57328;52.054;5.294;2024-01-16T06:35:49;7.47;;;3.00;;
69985;SDS011;57328;52.054;5.294;2024-01-16T06:38:19;7.55;;;3.03;;
69985;SDS011;57328;52.054;5.294;2024-01-16T06:40:46;11.27;;;3.08;;
69985;SDS011;57328;52.054;5.294;2024-01-16T06:43:14;10.30;;;3.40;;
69985;SDS011;57328;52.054;5.294;2024-01-16T06:45:42;10.77;;;3.55;;
69985;SDS011;57328;52.054;5.294;2024-01-16T06:48:10;8.38;;;3.35;;
69985;SDS011;57328;52.054;5.294;2024-01-16T06:50:38;8.80;;;3.28;;
69985;SDS011;57328;52.054;5.294;2024-01-16T06:53:05;7.40;;;3.38;;
69985;SDS011;57328;52.054;5.294;2024-01-16T06:55:33;8.13;;;2.92;;
69985;SDS011;57328;52.054;5.294;2024-01-16T06:58:00;9.05;;;3.60;;
69985;SDS011;57328;52.054;5.294;2024-01-16T07:00:27;9.88;;;3.45;;
69985;SDS011;57328;52.054;5.294;2024-01-16T07:02:54;8.80;;;3.45;;
69985;SDS011;57328;52.054;5.294;2024-01-16T07:05:22;8.70;;;3.30;;
69985;SDS011;57328;52.054;5.294;2024-01-16T07:07:49;9.70;;;2.95;;
69985;SDS011;57328;52.054;5.294;2024-01-16T07:10:16;7.68;;;2.63;;
69985;SDS011;57328;52.054;5.294;2024-01-16T07:12:48;11.73;;;3.15;;
69985;SDS011;57328;52.054;5.294;2024-01-16T07:15:17;8.20;;;3.00;;
69985;SDS011;57328;52.054;5.294;2024-01-16T07:17:45;12.52;;;2.78;;
69985;SDS011;57328;52.054;5.294;2024-01-16T07:20:12;10.15;;;2.53;;
69985;SDS011;57328;52.054;5.294;2024-01-16T07:22:39;7.07;;;2.70;;
69985;SDS011;57328;52.054;5.294;2024-01-16T07:25:07;8.05;;;2.72;;
69985;SDS011;57328;52.054;5.294;2024-01-16T07:27:35;8.23;;;2.50;;
69985;SDS011;57328;52.054;5.294;2024-01-16T07:30:05;8.75;;;2.78;;
69985;SDS011;57328;52.054;5.294;2024-01-16T07:32:32;12.98;;;2.95;;
69985;SDS011;57328;52.054;5.294;2024-01-16T07:35:01;8.73;;;2.95;;
69985;SDS011;57328;52.054;5.294;2024-01-16T07:37:29;11.93;;;3.47;;
69985;SDS011;57328;52.054;5.294;2024-01-16T07:39:57;11.90;;;3.20;;
69985;SDS011;57328;52.054;5.294;2024-01-16T07:42:24;10.75;;;2.80;;
69985;SDS011;57328;52.054;5.294;2024-01-16T07:44:52;9.35;;;2.80;;
69985;SDS011;57328;52.054;5.294;2024-01-16T07:47:20;9.27;;;3.08;;
69985;SDS011;57328;52.054;5.294;2024-01-16T07:49:48;10.65;;;3.20;;
69985;SDS011;57328;52.054;5.294;2024-01-16T07:52:15;10.55;;;3.10;;
69985;SDS011;57328;52.054;5.294;2024-01-16T07:54:42;8.95;;;3.45;;
69985;SDS011;57328;52.054;5.294;2024-01-16T07:57:09;9.93;;;3.13;;
69985;SDS011;57328;52.054;5.294;2024-01-16T07:59:38;8.32;;;3.35;;
69985;SDS011;57328;52.054;5.294;2024-01-16T08:02:07;9.32;;;3.30;;
69985;SDS011;57328;52.054;5.294;2024-01-16T08:04:35;9.82;;;3.53;;
69985;SDS011;57328;52.054;5.294;2024-01-16T08:07:02;13.25;;;3.70;;
69985;SDS011;57328;52.054;5.294;2024-01-16T08:09:30;12.73;;;3.85;;
69985;SDS011;57328;52.054;5.294;2024-01-16T08:11:57;9.75;;;3.50;;
69985;SDS011;57328;52.054;5.294;2024-01-16T08:14:24;12.27;;;3.10;;
69985;SDS011;57328;52.054;5.294;2024-01-16T08:16:52;6.97;;;2.88;;
69985;SDS011;57328;52.054;5.294;2024-01-16T08:19:19;11.13;;;3.50;;
69985;SDS011;57328;52.054;5.294;2024-01-16T08:21:46;8.13;;;2.60;;
69985;SDS011;57328;52.054;5.294;2024-01-16T08:24:13;9.63;;;3.03;;
69985;SDS011;57328;52.054;5.294;2024-01-16T08:26:41;12.43;;;3.28;;
69985;SDS011;57328;52.054;5.294;2024-01-16T08:29:08;8.85;;;2.90;;
69985;SDS011;57328;52.054;5.294;2024-01-16T08:31:35;9.43;;;3.05;;
69985;SDS011;57328;52.054;5.294;2024-01-16T08:34:03;8.75;;;2.90;;
69985;SDS011;57328;52.054;5.294;2024-01-16T08:36:30;6.40;;;2.50;;
69985;SDS011;57328;52.054;5.294;2024-01-16T08:38:57;10.52;;;2.92;;
69985;SDS011;57328;52.054;5.294;2024-01-16T08:41:24;9.52;;;2.95;;
69985;SDS011;57328;52.054;5.294;2024-01-16T08:43:52;6.15;;;2.10;;
69985;SDS011;57328;52.054;5.294;2024-01-16T08:46:20;8.70;;;2.10;;
69985;SDS011;57328;52.054;5.294;2024-01-16T08:48:47;9.73;;;2.33;;
69985;SDS011;57328;52.054;5.294;2024-01-16T08:51:14;10.48;;;2.38;;
69985;SDS011;57328;52.054;5.294;2024-01-16T08:53:42;10.90;;;2.67;;
69985;SDS011;57328;52.054;5.294;2024-01-16T08:56:09;6.90;;;2.40;;
69985;SDS011;57328;52.054;5.294;2024-01-16T08:58:38;12.57;;;2.83;;
69985;SDS011;57328;52.054;5.294;2024-01-16T09:01:06;10.50;;;2.60;;
69985;SDS011;57328;52.054;5.294;2024-01-16T09:03:34;11.10;;;3.00;;
69985;SDS011;57328;52.054;5.294;2024-01-16T09:06:02;8.13;;;2.90;;
69985;SDS011;57328;52.054;5.294;2024-01-16T09:08:30;8.30;;;2.30;;
69985;SDS011;57328;52.054;5.294;2024-01-16T09:10:58;4.90;;;1.98;;
69985;SDS011;57328;52.054;5.294;2024-01-16T09:13:26;7.60;;;2.25;;
69985;SDS011;57328;52.054;5.294;2024-01-16T09:15:53;5.28;;;1.85;;
69985;SDS011;57328;52.054;5.294;2024-01-16T09:18:20;6.50;;;2.40;;
69985;SDS011;57328;52.054;5.294;2024-01-16T09:20:49;9.13;;;3.05;;
69985;SDS011;57328;52.054;5.294;2024-01-16T09:23:16;9.50;;;2.55;;
69985;SDS011;57328;52.054;5.294;2024-01-16T09:25:43;9.57;;;2.50;;
69985;SDS011;57328;52.054;5.294;2024-01-16T09:28:13;7.88;;;2.47;;
69985;SDS011;57328;52.054;5.294;2024-01-16T09:30:41;8.93;;;2.30;;
69985;SDS011;57328;52.054;5.294;2024-01-16T09:33:09;8.15;;;2.28;;
69985;SDS011;57328;52.054;5.294;2024-01-16T09:35:51;8.20;;;2.35;;
69985;SDS011;57328;52.054;5.294;2024-01-16T09:38:32;8.63;;;2.20;;
69985;SDS011;57328;52.054;5.294;2024-01-16T09:41:13;9.15;;;2.90;;
69985;SDS011;57328;52.054;5.294;2024-01-16T09:43:55;12.68;;;2.35;;
69985;SDS011;57328;52.054;5.294;2024-01-16T09:46:39;9.27;;;2.20;;
69985;SDS011;57328;52.054;5.294;2024-01-16T09:49:21;6.80;;;2.30;;
69985;SDS011;57328;52.054;5.294;2024-01-16T09:52:03;6.85;;;2.20;;
69985;SDS011;57328;52.054;5.294;2024-01-16T09:54:44;6.20;;;2.00;;
69985;SDS011;57328;52.054;5.294;2024-01-16T09:57:25;8.60;;;2.25;;
69985;SDS011;57328;52.054;5.294;2024-01-16T10:00:07;8.18;;;2.38;;
69985;SDS011;57328;52.054;5.294;2024-01-16T10:02:51;8.45;;;2.33;;
69985;SDS011;57328;52.054;5.294;2024-01-16T10:05:33;6.82;;;2.15;;
69985;SDS011;57328;52.054;5.294;2024-01-16T10:08:16;8.27;;;2.72;;
69985;SDS011;57328;52.054;5.294;2024-01-16T10:11:01;8.27;;;2.35;;
69985;SDS011;57328;52.054;5.294;2024-01-16T10:16:26;7.32;;;2.20;;
69985;SDS011;57328;52.054;5.294;2024-01-16T10:19:26;11.52;;;2.55;;
69985;SDS011;57328;52.054;5.294;2024-01-16T10:22:08;9.65;;;2.53;;
69985;SDS011;57328;52.054;5.294;2024-01-16T10:24:49;8.82;;;2.25;;
69985;SDS011;57328;52.054;5.294;2024-01-16T10:27:31;6.15;;;2.50;;
69985;SDS011;57328;52.054;5.294;2024-01-16T10:30:12;6.00;;;1.63;;
69985;SDS011;57328;52.054;5.294;2024-01-16T10:32:53;6.25;;;2.33;;
69985;SDS011;57328;52.054;5.294;2024-01-16T10:35:34;11.02;;;3.05;;
69985;SDS011;57328;52.054;5.294;2024-01-16T10:38:21;11.10;;;2.65;;
69985;SDS011;57328;52.054;5.294;2024-01-16T10:41:13;9.23;;;2.67;;
69985;SDS011;57328;52.054;5.294;2024-01-16T10:44:04;10.63;;;3.42;;
69985;SDS011;57328;52.054;5.294;2024-01-16T10:46:47;7.68;;;2.30;;
69985;SDS011;57328;52.054;5.294;2024-01-16T10:49:28;6.65;;;2.15;;
69985;SDS011;57328;52.054;5.294;2024-01-16T10:52:09;5.45;;;2.08;;
69985;SDS011;57328;52.054;5.294;2024-01-16T10:54:52;10.52;;;2.33;;
69985;SDS011;57328;52.054;5.294;2024-01-16T10:57:37;7.78;;;2.17;;
69985;SDS011;57328;52.054;5.294;2024-01-16T11:00:21;7.53;;;1.70;;
69985;SDS011;57328;52.054;5.294;2024-01-16T11:03:06;7.88;;;2.00;;
69985;SDS011;57328;52.054;5.294;2024-01-16T11:05:48;9.38;;;2.08;;
69985;SDS011;57328;52.054;5.294;2024-01-16T11:08:30;5.70;;;1.90;;
69985;SDS011;57328;52.054;5.294;2024-01-16T11:11:13;11.10;;;1.95;;
69985;SDS011;57328;52.054;5.294;2024-01-16T11:16:35;9.73;;;2.75;;
69985;SDS011;57328;52.054;5.294;2024-01-16T11:19:16;12.05;;;2.30;;
69985;SDS011;57328;52.054;5.294;2024-01-16T11:21:58;5.60;;;1.48;;
69985;SDS011;57328;52.054;5.294;2024-01-16T11:24:39;9.20;;;3.17;;
69985;SDS011;57328;52.054;5.294;2024-01-16T11:27:24;6.93;;;2.85;;
69985;SDS011;57328;52.054;5.294;2024-01-16T11:30:08;6.10;;;1.70;;
69985;SDS011;57328;52.054;5.294;2024-01-16T11:32:51;6.10;;;2.10;;
69985;SDS011;57328;52.054;5.294;2024-01-16T11:35:18;8.63;;;1.92;;
69985;SDS011;57328;52.054;5.294;2024-01-16T11:38:16;7.95;;;2.28;;
69985;SDS011;57328;52.054;5.294;2024-01-16T11:41:01;10.15;;;2.70;;
69985;SDS011;57328;52.054;5.294;2024-01-16T11:43:42;10.73;;;2.15;;
69985;SDS011;57328;52.054;5.294;2024-01-16T11:46:23;6.40;;;1.85;;
69985;SDS011;57328;52.054;5.294;2024-01-16T11:49:24;11.57;;;2.00;;
69985;SDS011;57328;52.054;5.294;2024-01-16T11:52:05;5.72;;;1.80;;
69985;SDS011;57328;52.054;5.294;2024-01-16T11:54:46;5.93;;;1.52;;
69985;SDS011;57328;52.054;5.294;2024-01-16T11:57:49;6.18;;;2.00;;
69985;SDS011;57328;52.054;5.294;2024-01-16T12:00:33;7.72;;;2.00;;
69985;SDS011;57328;52.054;5.294;2024-01-16T12:03:16;7.47;;;1.92;;
69985;SDS011;57328;52.054;5.294;2024-01-16T12:05:59;7.63;;;1.92;;
69985;SDS011;57328;52.054;5.294;2024-01-16T12:11:21;5.15;;;1.70;;
69985;SDS011;57328;52.054;5.294;2024-01-16T12:14:02;10.10;;;2.47;;
69985;SDS011;57328;52.054;5.294;2024-01-16T12:16:43;9.90;;;2.38;;
69985;SDS011;57328;52.054;5.294;2024-01-16T12:19:25;5.32;;;1.77;;
69985;SDS011;57328;52.054;5.294;2024-01-16T12:22:08;8.70;;;2.40;;
69985;SDS011;57328;52.054;5.294;2024-01-16T12:24:55;7.07;;;2.15;;
69985;SDS011;57328;52.054;5.294;2024-01-16T12:27:38;10.25;;;2.50;;
69985;SDS011;57328;52.054;5.294;2024-01-16T12:30:20;8.35;;;2.38;;
69985;SDS011;57328;52.054;5.294;2024-01-16T12:33:07;10.05;;;2.60;;
69985;SDS011;57328;52.054;5.294;2024-01-16T12:35:49;7.47;;;2.38;;
69985;SDS011;57328;52.054;5.294;2024-01-16T12:38:30;9.93;;;2.42;;
69985;SDS011;57328;52.054;5.294;2024-01-16T12:41:11;9.88;;;3.17;;
69985;SDS011;57328;52.054;5.294;2024-01-16T12:43:53;6.70;;;2.15;;
69985;SDS011;57328;52.054;5.294;2024-01-16T12:46:34;8.27;;;2.22;;
69985;SDS011;57328;52.054;5.294;2024-01-16T12:49:15;6.70;;;2.25;;
69985;SDS011;57328;52.054;5.294;2024-01-16T12:55:00;7.88;;;3.05;;
69985;SDS011;57328;52.054;5.294;2024-01-16T12:57:41;8.68;;;2.72;;
69985;SDS011;57328;52.054;5.294;2024-01-16T13:00:23;7.55;;;2.00;;
69985;SDS011;57328;52.054;5.294;2024-01-16T13:03:05;7.22;;;2.45;;
69985;SDS011;57328;52.054;5.294;2024-01-16T13:05:54;7.88;;;1.85;;
69985;SDS011;57328;52.054;5.294;2024-01-16T13:08:35;6.57;;;1.70;;
69985;SDS011;57328;52.054;5.294;2024-01-16T13:14:01;6.35;;;2.10;;
69985;SDS011;57328;52.054;5.294;2024-01-16T13:16:45;10.90;;;3.22;;
69985;SDS011;57328;52.054;5.294;2024-01-16T13:19:26;8.30;;;2.20;;
69985;SDS011;57328;52.054;5.294;2024-01-16T13:22:09;10.00;;;2.40;;
69985;SDS011;57328;52.054;5.294;2024-01-16T13:27:31;7.35;;;2.55;;
69985;SDS011;57328;52.054;5.294;2024-01-16T13:30:12;6.50;;;2.20;;
69985;SDS011;57328;52.054;5.294;2024-01-16T13:32:54;6.78;;;1.98;;
69985;SDS011;57328;52.054;5.294;2024-01-16T13:35:37;9.48;;;2.58;;
69985;SDS011;57328;52.054;5.294;2024-01-16T13:38:19;5.50;;;1.90;;
69985;SDS011;57328;52.054;5.294;2024-01-16T13:41:00;7.53;;;2.15;;
69985;SDS011;57328;52.054;5.294;2024-01-16T13:43:42;6.85;;;2.15;;
69985;SDS011;57328;52.054;5.294;2024-01-16T13:46:23;7.47;;;2.25;;
69985;SDS011;57328;52.054;5.294;2024-01-16T13:49:04;8.13;;;2.17;;
69985;SDS011;57328;52.054;5.294;2024-01-16T13:51:46;8.98;;;1.92;;
69985;SDS011;57328;52.054;5.294;2024-01-16T13:54:27;4.88;;;1.70;;
69985;SDS011;57328;52.054;5.294;2024-01-16T13:57:08;5.80;;;2.10;;
69985;SDS011;57328;52.054;5.294;2024-01-16T13:59:49;4.82;;;1.75;;
69985;SDS011;57328;52.054;5.294;2024-01-16T14:02:31;6.80;;;1.95;;
69985;SDS011;57328;52.054;5.294;2024-01-16T14:05:12;9.10;;;2.10;;
69985;SDS011;57328;52.054;5.294;2024-01-16T14:07:45;9.38;;;2.75;;
69985;SDS011;57328;52.054;5.294;2024-01-16T14:10:26;9.98;;;2.63;;
69985;SDS011;57328;52.054;5.294;2024-01-16T14:13:07;7.03;;;2.40;;
69985;SDS011;57328;52.054;5.294;2024-01-16T14:15:50;6.07;;;2.03;;
69985;SDS011;57328;52.054;5.294;2024-01-16T14:18:31;7.97;;;2.45;;
69985;SDS011;57328;52.054;5.294;2024-01-16T14:21:12;6.05;;;2.30;;
69985;SDS011;57328;52.054;5.294;2024-01-16T14:23:53;10.15;;;2.25;;
69985;SDS011;57328;52.054;5.294;2024-01-16T14:26:34;9.70;;;2.25;;
69985;SDS011;57328;52.054;5.294;2024-01-16T14:29:15;8.68;;;2.70;;
69985;SDS011;57328;52.054;5.294;2024-01-16T14:31:56;5.88;;;1.95;;
69985;SDS011;57328;52.054;5.294;2024-01-16T14:34:38;7.10;;;2.10;;
69985;SDS011;57328;52.054;5.294;2024-01-16T14:37:19;8.77;;;2.08;;
69985;SDS011;57328;52.054;5.294;2024-01-16T14:40:01;6.65;;;1.83;;
69985;SDS011;57328;52.054;5.294;2024-01-16T14:42:43;8.10;;;2.40;;
69985;SDS011;57328;52.054;5.294;2024-01-16T14:45:25;6.13;;;1.98;;
69985;SDS011;57328;52.054;5.294;2024-01-16T14:48:11;5.72;;;2.13;;
69985;SDS011;57328;52.054;5.294;2024-01-16T14:50:52;8.88;;;2.40;;
69985;SDS011;57328;52.054;5.294;2024-01-16T14:53:36;6.93;;;2.40;;
69985;SDS011;57328;52.054;5.294;2024-01-16T14:56:17;9.82;;;2.60;;
69985;SDS011;57328;52.054;5.294;2024-01-16T14:58:59;8.35;;;2.42;;
69985;SDS011;57328;52.054;5.294;2024-01-16T15:01:40;9.18;;;2.40;;
69985;SDS011;57328;52.054;5.294;2024-01-16T15:04:21;10.98;;;2.47;;
69985;SDS011;57328;52.054;5.294;2024-01-16T15:07:04;10.43;;;2.50;;
69985;SDS011;57328;52.054;5.294;2024-01-16T15:09:45;9.75;;;3.15;;
69985;SDS011;57328;52.054;5.294;2024-01-16T15:12:26;8.90;;;2.45;;
69985;SDS011;57328;52.054;5.294;2024-01-16T15:15:08;10.05;;;2.75;;
69985;SDS011;57328;52.054;5.294;2024-01-16T15:17:52;8.30;;;2.63;;
69985;SDS011;57328;52.054;5.294;2024-01-16T15:20:33;9.88;;;2.78;;
69985;SDS011;57328;52.054;5.294;2024-01-16T15:23:14;7.90;;;2.55;;
69985;SDS011;57328;52.054;5.294;2024-01-16T15:25:56;7.50;;;2.25;;
69985;SDS011;57328;52.054;5.294;2024-01-16T15:28:42;9.55;;;2.42;;
69985;SDS011;57328;52.054;5.294;2024-01-16T15:31:23;7.47;;;2.70;;
69985;SDS011;57328;52.054;5.294;2024-01-16T15:34:05;8.63;;;2.75;;
69985;SDS011;57328;52.054;5.294;2024-01-16T15:36:46;7.22;;;2.70;;
69985;SDS011;57328;52.054;5.294;2024-01-16T15:39:27;5.07;;;2.40;;
69985;SDS011;57328;52.054;5.294;2024-01-16T15:42:08;9.00;;;2.20;;